createdAt,value
2023-04-01T00:01:50.509Z,97657.38
2023-04-01T00:04:37.339Z,97660.94
2023-04-01T00:07:24.130Z,97662.53
2023-04-01T00:10:12.853Z,97667.66
2023-04-01T00:12:59.188Z,97666.59
2023-04-01T00:15:46.602Z,97654.78
2023-04-01T00:18:33.155Z,97674.56
2023-04-01T00:21:21.463Z,97664.16
2023-04-01T00:24:07.890Z,97675.00
2023-04-01T00:26:54.497Z,97682.94
2023-04-01T00:29:45.962Z,97684.34
2023-04-01T00:32:32.996Z,97683.63
2023-04-01T00:35:19.405Z,97699.09
2023-04-01T00:38:07.223Z,97684.31
2023-04-01T00:40:59.322Z,97635.91
2023-04-01T00:43:48.822Z,97685.91
2023-04-01T00:46:36.620Z,97671.03
2023-04-01T00:49:27.737Z,97676.25
2023-04-01T00:52:18.624Z,97667.44
2023-04-01T00:55:07.421Z,97681.16
2023-04-01T00:57:58.190Z,97672.59
2023-04-01T01:00:47.443Z,97663.13
2023-04-01T01:03:34.131Z,97672.84
2023-04-01T01:06:49.978Z,97670.81
2023-04-01T01:10:08.873Z,97674.34
2023-04-01T01:13:26.511Z,97676.19
2023-04-01T01:16:37.888Z,97677.94
2023-04-01T01:19:49.317Z,97677.84
2023-04-01T01:23:01.395Z,97669.19
2023-04-01T01:26:29.533Z,97661.50
2023-04-01T01:29:16.320Z,97673.41
2023-04-01T01:32:41.063Z,97669.06
2023-04-01T01:35:34.756Z,97670.81
2023-04-01T01:38:28.299Z,97669.88
2023-04-01T01:41:22.977Z,97663.91
2023-04-01T01:44:13.532Z,97671.66
2023-04-01T01:47:01.244Z,97680.06
2023-04-01T01:49:47.970Z,97680.06
2023-04-01T01:52:35.971Z,97679.19
2023-04-01T01:55:30.476Z,97676.53
2023-04-01T01:58:33.505Z,97673.19
2023-04-01T02:01:30.664Z,97637.28
2023-04-01T02:04:24.561Z,97655.19
2023-04-01T02:07:21.150Z,97664.72
2023-04-01T02:10:08.725Z,97655.31
2023-04-01T02:13:02.234Z,97657.94
2023-04-01T02:15:51.779Z,97664.09
2023-04-01T02:18:39.961Z,97653.63
2023-04-01T02:21:30.965Z,97650.16
2023-04-01T02:24:22.244Z,97640.97
2023-04-01T02:27:11.021Z,97656.34
2023-04-01T02:29:58.879Z,97650.47
2023-04-01T02:32:47.071Z,97662.44
2023-04-01T02:35:37.604Z,97674.63
2023-04-01T02:38:24.468Z,97647.44
2023-04-01T02:41:11.016Z,97676.53
2023-04-01T02:43:59.450Z,97678.22
2023-04-01T02:46:46.109Z,97675.63
2023-04-01T02:49:32.921Z,97676.63
2023-04-01T02:52:19.315Z,97670.78
2023-04-01T02:55:08.081Z,97681.22
2023-04-01T02:57:54.877Z,97660.81
2023-04-01T03:00:41.284Z,97638.81
2023-04-01T03:03:27.749Z,97667.25
2023-04-01T03:06:16.647Z,97670.69
2023-04-01T03:09:04.289Z,97660.41
2023-04-01T03:11:50.843Z,97677.59
2023-04-01T03:14:38.142Z,97669.03
2023-04-01T03:17:24.530Z,97671.56
2023-04-01T03:20:12.180Z,97669.16
2023-04-01T03:22:58.858Z,97676.19
2023-04-01T03:25:47.060Z,97675.53
2023-04-01T03:28:35.317Z,97671.22
2023-04-01T03:31:23.274Z,97678.16
2023-04-01T03:34:13.768Z,97673.06
2023-04-01T03:37:01.109Z,97660.28
2023-04-01T03:39:47.899Z,97670.59
2023-04-01T03:42:34.975Z,97663.03
2023-04-01T03:45:21.713Z,97664.81
2023-04-01T03:48:08.251Z,97659.84
2023-04-01T03:50:55.084Z,97658.84
2023-04-01T03:53:43.120Z,97663.22
2023-04-01T03:56:32.109Z,97661.47
2023-04-01T03:59:18.721Z,97652.88
2023-04-01T04:02:05.992Z,97662.25
2023-04-01T04:04:52.761Z,97657.81
2023-04-01T04:07:39.292Z,97648.22
2023-04-01T04:10:30.131Z,97650.13
2023-04-01T04:13:16.829Z,97650.75
2023-04-01T04:16:11.033Z,97640.66
2023-04-01T04:19:01.336Z,97630.31
2023-04-01T04:21:47.597Z,97643.88
2023-04-01T04:24:36.030Z,97653.28
2023-04-01T04:27:29.068Z,97646.31
2023-04-01T04:30:25.947Z,97639.41
2023-04-01T04:33:12.920Z,97631.59
2023-04-01T04:36:00.951Z,97647.69
2023-04-01T04:38:48.781Z,97640.78
2023-04-01T04:41:38.607Z,97645.00
2023-04-01T04:44:28.009Z,97642.00
2023-04-01T04:47:15.160Z,97644.53
2023-04-01T04:50:01.707Z,97638.53
2023-04-01T04:52:48.419Z,97645.81
2023-04-01T04:55:35.288Z,97634.03
2023-04-01T04:58:40.934Z,97635.66
2023-04-01T05:01:30.431Z,97640.88
2023-04-01T05:04:16.804Z,97624.81
2023-04-01T05:07:03.909Z,97617.97
2023-04-01T05:09:52.036Z,97638.69
2023-04-01T05:12:39.796Z,97622.44
2023-04-01T05:15:28.420Z,97642.06
2023-04-01T05:18:16.185Z,97640.16
2023-04-01T05:21:02.418Z,97635.81
2023-04-01T05:23:48.675Z,97613.25
2023-04-01T05:26:35.005Z,97624.28
2023-04-01T05:29:21.286Z,97635.22
2023-04-01T05:32:13.557Z,97626.00
2023-04-01T05:35:00.380Z,97619.00
2023-04-01T05:37:46.569Z,97618.75
2023-04-01T05:40:33.640Z,97616.97
2023-04-01T05:43:19.842Z,97609.22
2023-04-01T05:46:09.392Z,97619.38
2023-04-01T05:49:02.684Z,97592.84
2023-04-01T05:51:49.240Z,97608.06
2023-04-01T05:54:36.231Z,97613.22
2023-04-01T05:57:22.693Z,97616.34
2023-04-01T06:00:09.856Z,97612.00
2023-04-01T06:03:00.986Z,97604.25
2023-04-01T06:05:50.554Z,97610.03
2023-04-01T06:08:36.893Z,97615.81
2023-04-01T06:11:41.645Z,97611.94
2023-04-01T06:15:16.509Z,97622.69
2023-04-01T06:18:31.836Z,97617.59
2023-04-01T06:22:04.301Z,97623.00
2023-04-01T06:25:17.127Z,97621.38
2023-04-01T06:28:25.532Z,97624.06
2023-04-01T06:31:27.659Z,97624.00
2023-04-01T06:34:17.270Z,97625.69
2023-04-01T06:37:38.655Z,97630.63
2023-04-01T06:40:46.840Z,97629.69
2023-04-01T06:43:43.329Z,97628.94
2023-04-01T06:47:01.472Z,97636.88
2023-04-01T06:50:09.279Z,97637.03
2023-04-01T06:53:33.352Z,97635.41
2023-04-01T06:56:29.344Z,97638.69
2023-04-01T06:59:29.755Z,97629.91
2023-04-01T07:02:40.413Z,97628.34
2023-04-01T07:05:32.458Z,97635.81
2023-04-01T07:08:24.871Z,97638.31
2023-04-01T07:11:18.703Z,97608.38
2023-04-01T07:14:31.231Z,97606.03
2023-04-01T07:17:27.267Z,97632.50
2023-04-01T07:20:27.735Z,97646.03
2023-04-01T07:23:27.395Z,97634.91
2023-04-01T07:26:25.207Z,97642.34
2023-04-01T07:29:15.673Z,97645.59
2023-04-01T07:32:29.118Z,97650.47
2023-04-01T07:35:35.074Z,97643.53
2023-04-01T07:38:38.537Z,97611.31
2023-04-01T07:41:41.446Z,97653.41
2023-04-01T07:44:41.123Z,97640.22
2023-04-01T07:47:53.433Z,97658.66
2023-04-01T07:50:53.997Z,97642.66
2023-04-01T07:53:48.598Z,97645.88
2023-04-01T07:56:55.288Z,97662.41
2023-04-01T08:00:18.147Z,97665.09
2023-04-01T08:03:39.769Z,97653.22
2023-04-01T08:06:44.909Z,97660.41
2023-04-01T08:09:53.951Z,97652.00
2023-04-01T08:13:22.065Z,97669.13
2023-04-01T08:17:02.551Z,97673.00
2023-04-01T08:20:23.852Z,97663.44
2023-04-01T08:23:25.581Z,97677.59
2023-04-01T08:26:31.038Z,97654.06
2023-04-01T08:29:25.369Z,97680.41
2023-04-01T08:32:13.948Z,97667.97
2023-04-01T08:35:30.417Z,97670.56
2023-04-01T08:38:32.280Z,97655.47
2023-04-01T08:41:52.921Z,97667.84
2023-04-01T08:45:41.478Z,97670.09
2023-04-01T08:48:43.450Z,97671.84
2023-04-01T08:51:37.605Z,97672.28
2023-04-01T08:54:46.430Z,97670.31
2023-04-01T08:58:02.562Z,97634.72
2023-04-01T09:01:26.927Z,97668.22
2023-04-01T09:04:32.646Z,97664.63
2023-04-01T09:07:51.052Z,97663.19
2023-04-01T09:10:42.968Z,97671.75
2023-04-01T09:13:57.791Z,97675.03
2023-04-01T09:17:18.918Z,97672.34
2023-04-01T09:20:11.359Z,97681.59
2023-04-01T09:23:11.907Z,97677.47
2023-04-01T09:26:19.309Z,97664.84
2023-04-01T09:29:17.880Z,97688.28
2023-04-01T09:32:38.296Z,97673.16
2023-04-01T09:35:36.024Z,97688.59
2023-04-01T09:38:44.305Z,97683.16
2023-04-01T09:41:40.805Z,97671.53
2023-04-01T09:44:57.817Z,97685.78
2023-04-01T09:48:02.866Z,97686.69
2023-04-01T09:51:06.721Z,97694.13
2023-04-01T09:54:20.684Z,97696.31
2023-04-01T09:57:35.209Z,97694.19
2023-04-01T10:00:51.465Z,97690.97
2023-04-01T10:03:53.525Z,97698.00
2023-04-01T10:06:54.992Z,97691.53
2023-04-01T10:09:50.769Z,97690.78
2023-04-01T10:13:05.206Z,97700.59
2023-04-01T10:16:20.706Z,97701.63
2023-04-01T10:19:13.174Z,97707.03
2023-04-01T10:22:32.902Z,97678.78
2023-04-01T10:25:50.094Z,97688.25
2023-04-01T10:28:46.619Z,97697.69
2023-04-01T10:32:28.862Z,97704.56
2023-04-01T10:35:24.948Z,97697.84
2023-04-01T10:38:24.303Z,97699.53
2023-04-01T10:41:34.867Z,97695.97
2023-04-01T10:45:24.709Z,97710.84
2023-04-01T10:48:39.053Z,97704.41
2023-04-01T10:51:37.810Z,97699.09
2023-04-01T10:54:49.440Z,97697.63
2023-04-01T10:58:13.403Z,97699.09
2023-04-01T11:02:08.219Z,97716.84
2023-04-01T11:05:31.455Z,97705.03
2023-04-01T11:08:57.691Z,97717.38
2023-04-01T11:12:04.958Z,97712.25
2023-04-01T11:15:04.081Z,97712.97
2023-04-01T11:18:03.666Z,97714.41
2023-04-01T11:21:24.778Z,97702.63
2023-04-01T11:24:40.688Z,97710.69
2023-04-01T11:28:02.638Z,97723.03
2023-04-01T11:31:11.948Z,97711.03
2023-04-01T11:34:37.718Z,97713.13
2023-04-01T11:38:07.949Z,97722.91
2023-04-01T11:42:03.733Z,97706.91
2023-04-01T11:45:29.844Z,97739.38
2023-04-01T11:48:28.112Z,97744.84
2023-04-01T11:51:19.043Z,97736.00
2023-04-01T11:54:11.472Z,97737.94
2023-04-01T11:57:16.532Z,97734.16
2023-04-01T12:00:14.236Z,97737.72
2023-04-01T12:03:30.224Z,97744.88
2023-04-01T12:06:39.780Z,97728.00
2023-04-01T12:09:41.689Z,97757.66
2023-04-01T12:12:54.085Z,97733.19
2023-04-01T12:16:22.518Z,97740.84
2023-04-01T12:19:35.700Z,97741.91
2023-04-01T12:22:48.579Z,97736.22
2023-04-01T12:26:12.230Z,97731.44
2023-04-01T12:29:25.855Z,97741.78
2023-04-01T12:32:36.339Z,97742.06
2023-04-01T12:35:57.941Z,97745.81
2023-04-01T12:39:21.651Z,97741.59
2023-04-01T12:42:26.488Z,97747.53
2023-04-01T12:45:35.978Z,97722.34
2023-04-01T12:48:26.299Z,97752.72
2023-04-01T12:51:13.075Z,97750.47
2023-04-01T12:54:25.237Z,97758.59
2023-04-01T12:57:33.675Z,97761.00
2023-04-01T13:00:41.034Z,97774.38
2023-04-01T13:03:49.815Z,97770.97
2023-04-01T13:07:07.509Z,97771.19
2023-04-01T13:10:06.415Z,97781.16
2023-04-01T13:13:11.959Z,97774.09
2023-04-01T13:16:20.308Z,97764.06
2023-04-01T13:19:31.667Z,97760.91
2023-04-01T13:22:50.659Z,97776.38
2023-04-01T13:26:06.785Z,97785.81
2023-04-01T13:29:21.342Z,97785.31
2023-04-01T13:32:43.216Z,97790.84
2023-04-01T13:36:08.342Z,97790.88
2023-04-01T13:39:13.130Z,97790.94
2023-04-01T13:42:18.562Z,97793.31
2023-04-01T13:45:11.260Z,97807.22
2023-04-01T13:48:24.297Z,97809.59
2023-04-01T13:51:16.776Z,97802.19
2023-04-01T13:54:16.295Z,97822.81
2023-04-01T13:57:35.207Z,97810.00
2023-04-01T14:00:43.533Z,97813.78
2023-04-01T14:03:40.325Z,97816.78
2023-04-01T14:06:52.607Z,97820.53
2023-04-01T14:10:14.498Z,97817.44
2023-04-01T14:13:24.213Z,97829.88
2023-04-01T14:16:23.291Z,97823.69
2023-04-01T14:19:29.803Z,97828.41
2023-04-01T14:22:26.681Z,97817.56
2023-04-01T14:25:32.586Z,97821.50
2023-04-01T14:28:32.776Z,97825.72
2023-04-01T14:31:53.970Z,97829.28
2023-04-01T14:34:43.257Z,97839.31
2023-04-01T14:37:55.396Z,97807.22
2023-04-01T14:40:57.517Z,97810.31
2023-04-01T14:43:50.338Z,97836.31
2023-04-01T14:46:54.800Z,97835.69
2023-04-01T14:49:48.216Z,97784.53
2023-04-01T14:52:39.542Z,97832.63
2023-04-01T14:55:47.150Z,97850.03
2023-04-01T14:58:48.522Z,97833.81
2023-04-01T15:01:51.535Z,97842.22
2023-04-01T15:05:24.419Z,97840.22
2023-04-01T15:08:16.842Z,97839.47
2023-04-01T15:11:27.905Z,97845.16
2023-04-01T15:14:43.836Z,97836.19
2023-04-01T15:17:59.549Z,97841.31
2023-04-01T15:21:45.684Z,97840.13
2023-04-01T15:25:06.515Z,97842.06
2023-04-01T15:28:04.381Z,97809.88
2023-04-01T15:30:58.062Z,97846.94
2023-04-01T15:34:23.206Z,97857.25
2023-04-01T15:37:39.384Z,97852.94
2023-04-01T15:40:38.266Z,97845.91
2023-04-01T15:43:33.801Z,97836.56
2023-04-01T15:46:26.572Z,97854.03
2023-04-01T15:49:35.339Z,97855.06
2023-04-01T15:52:51.262Z,97847.34
2023-04-01T15:55:49.260Z,97853.34
2023-04-01T15:59:03.090Z,97861.41
2023-04-01T16:01:59.929Z,97857.03
2023-04-01T16:04:53.204Z,97797.59
2023-04-01T16:08:13.723Z,97862.28
2023-04-01T16:11:11.679Z,97847.09
2023-04-01T16:14:36.083Z,97866.47
2023-04-01T16:17:42.815Z,97864.63
2023-04-01T16:21:06.204Z,97863.00
2023-04-01T16:23:59.466Z,97858.72
2023-04-01T16:27:32.434Z,97871.72
2023-04-01T16:30:35.558Z,97864.38
2023-04-01T16:33:41.075Z,97879.84
2023-04-01T16:36:32.155Z,97867.22
2023-04-01T16:39:47.409Z,97855.44
2023-04-01T16:42:50.058Z,97878.50
2023-04-01T16:45:50.805Z,97878.50
2023-04-01T16:48:59.922Z,97863.94
2023-04-01T16:51:56.032Z,97874.22
2023-04-01T16:54:48.552Z,97879.22
2023-04-01T16:57:50.112Z,97873.97
2023-04-01T17:00:54.200Z,97869.50
2023-04-01T17:03:46.690Z,97880.00
2023-04-01T17:06:48.142Z,97886.97
2023-04-01T17:10:01.233Z,97887.72
2023-04-01T17:12:56.459Z,97900.66
2023-04-01T17:16:20.769Z,97910.22
2023-04-01T17:19:36.558Z,97905.28
2023-04-01T17:22:42.152Z,97927.72
2023-04-01T17:25:44.257Z,97936.38
2023-04-01T17:28:37.109Z,97944.31
2023-04-01T17:31:26.697Z,97945.63
2023-04-01T17:34:24.894Z,97950.28
2023-04-01T17:37:28.480Z,97956.47
2023-04-01T17:40:35.495Z,97948.28
2023-04-01T17:43:44.071Z,97947.53
2023-04-01T17:47:09.636Z,97953.75
2023-04-01T17:50:22.350Z,97970.22
2023-04-01T17:53:38.236Z,97954.78
2023-04-01T17:57:14.354Z,97957.34
2023-04-01T18:05:07.513Z,97978.91
2023-04-01T18:08:06.757Z,97986.72
2023-04-01T18:10:58.885Z,97975.75
2023-04-01T18:14:01.165Z,97972.41
2023-04-01T18:17:01.120Z,97996.38
2023-04-01T18:20:06.604Z,97990.34
2023-04-01T18:23:03.763Z,97986.84
2023-04-01T18:25:56.481Z,97981.69
2023-04-01T18:28:50.874Z,97988.47
2023-04-01T18:31:45.690Z,97984.25
2023-04-01T18:34:41.748Z,98003.09
2023-04-01T18:37:28.016Z,98014.31
2023-04-01T18:40:28.613Z,97988.72
2023-04-01T18:43:38.972Z,97999.91
2023-04-01T18:46:40.528Z,98016.22
2023-04-01T18:50:04.823Z,98015.59
2023-04-01T18:53:10.025Z,98021.09
2023-04-01T18:56:03.645Z,98020.34
2023-04-01T18:59:14.738Z,98011.88
2023-04-01T19:02:09.159Z,98040.28
2023-04-01T19:05:35.853Z,98037.75
2023-04-01T19:08:37.382Z,98039.56
2023-04-01T19:11:29.490Z,98043.00
2023-04-01T19:14:29.687Z,98038.72
2023-04-01T19:17:47.365Z,98044.69
2023-04-01T19:21:07.175Z,98035.19
2023-04-01T19:24:00.408Z,98040.38
2023-04-01T19:26:48.377Z,98039.56
2023-04-01T19:29:49.639Z,98037.00
2023-04-01T19:32:55.251Z,98039.66
2023-04-01T19:35:42.977Z,98037.16
2023-04-01T19:38:38.923Z,98042.34
2023-04-01T19:41:36.125Z,98045.81
2023-04-01T19:44:24.338Z,98048.38
2023-04-01T19:47:38.922Z,98049.28
2023-04-01T19:50:41.238Z,98015.91
2023-04-01T19:53:55.635Z,98055.28
2023-04-01T19:57:02.044Z,98040.72
2023-04-01T20:00:17.721Z,98047.72
2023-04-01T20:03:23.108Z,98070.88
2023-04-01T20:06:25.436Z,98070.69
2023-04-01T20:09:16.397Z,98071.44
2023-04-01T20:12:18.290Z,98059.50
2023-04-01T20:15:21.048Z,98075.50
2023-04-01T20:18:18.922Z,98089.94
2023-04-01T20:21:28.555Z,98080.34
2023-04-01T20:24:14.800Z,98091.53
2023-04-01T20:27:10.189Z,98092.38
2023-04-01T20:30:11.857Z,98105.19
2023-04-01T20:33:28.838Z,98101.78
2023-04-01T20:36:23.684Z,98101.78
2023-04-01T20:39:32.060Z,98114.50
2023-04-01T20:42:55.949Z,98117.97
2023-04-01T20:45:57.334Z,98106.75
2023-04-01T20:49:26.103Z,98120.44
2023-04-01T20:52:16.151Z,98123.94
2023-04-01T20:55:14.636Z,98123.06
2023-04-01T20:58:11.476Z,98130.75
2023-04-01T21:01:21.951Z,98125.63
2023-04-01T21:04:59.069Z,98125.72
2023-04-01T21:07:56.918Z,98133.47
2023-04-01T21:11:09.580Z,98136.16
2023-04-01T21:14:01.838Z,98138.69
2023-04-01T21:17:15.765Z,98143.81
2023-04-01T21:20:30.426Z,98137.06
2023-04-01T21:23:35.410Z,98153.28
2023-04-01T21:26:43.663Z,98151.53
2023-04-01T21:29:58.697Z,98159.19
2023-04-01T21:33:08.574Z,98157.44
2023-04-01T21:36:06.965Z,98159.16
2023-04-01T21:39:16.369Z,98159.13
2023-04-01T21:42:41.696Z,98157.44
2023-04-01T21:45:57.903Z,98158.28
2023-04-01T21:49:10.067Z,98168.66
2023-04-01T21:52:20.964Z,98168.66
2023-04-01T21:55:19.656Z,98170.41
2023-04-01T21:58:31.104Z,98181.56
2023-04-01T22:01:48.695Z,98185.03
2023-04-01T22:04:53.808Z,98173.00
2023-04-01T22:08:02.111Z,98182.38
2023-04-01T22:10:59.842Z,98180.69
2023-04-01T22:14:05.532Z,98179.81
2023-04-01T22:16:58.688Z,98185.88
2023-04-01T22:20:06.460Z,98191.03
2023-04-01T22:22:58.771Z,98183.28
2023-04-01T22:25:53.371Z,98187.59
2023-04-01T22:28:53.643Z,98185.03
2023-04-01T22:32:04.150Z,98185.84
2023-04-01T22:35:33.821Z,98190.13
2023-04-01T22:38:56.878Z,98184.19
2023-04-01T22:41:51.234Z,98186.78
2023-04-01T22:44:43.995Z,98191.88
2023-04-01T22:47:52.454Z,98190.94
2023-04-01T22:50:54.418Z,98191.84
2023-04-01T22:53:49.875Z,98202.16
2023-04-01T22:56:47.458Z,98192.72
2023-04-01T22:59:46.265Z,98203.00
2023-04-01T23:02:48.006Z,98207.31
2023-04-01T23:05:40.498Z,98214.19
2023-04-01T23:08:39.888Z,98207.31
2023-04-01T23:11:37.255Z,98203.97
2023-04-01T23:14:34.937Z,98217.69
2023-04-01T23:17:36.724Z,98210.75
2023-04-01T23:20:47.281Z,98217.69
2023-04-01T23:23:49.610Z,98214.19
2023-04-01T23:26:39.693Z,98215.91
2023-04-01T23:29:26.991Z,98221.09
2023-04-01T23:32:33.674Z,98218.50
2023-04-01T23:35:20.306Z,98197.19
2023-04-01T23:38:09.349Z,98230.53
2023-04-01T23:40:56.530Z,98215.13
2023-04-01T23:43:44.802Z,98234.94
2023-04-01T23:46:34.880Z,98231.50
2023-04-01T23:49:29.513Z,98240.91
2023-04-01T23:52:23.212Z,98238.34
2023-04-01T23:55:22.749Z,98240.09
2023-04-01T23:58:19.555Z,98246.00
